Ermua, Spain
Current Conditions -  °F | °C
As of 9:30 AM on Tuesday 21 Oct 2014 (Local Time) from LEBB Reporting Station
Clear Clear  
Wind Chill: 61°   Ceiling: Unl
Heat Index: 61°   Visibility: 5mi
Dew Point: 59°   Wind: 2mph
Humidity: 94%   Direction: NA
Pressure: 30.24"   Gusts: NA
Location:  43.18°N, 2.5°W
Report Text: LEBB 210730Z VRB02KT 8000 NSC 16/15 Q1024 NOSIG
Loading
Personal Weather Stations






























Interactive Weather Map
Tropical Storm Tracking
New forecast layout! Learn more

10-Day Weather Forecast

Advertisements
Track Severe Weather on mobile